createdAt,value
2022-08-26T00:01:59.525Z,84.28
2022-08-26T00:04:26.741Z,83.86
2022-08-26T00:06:53.204Z,84.73
2022-08-26T00:09:19.988Z,84.46
2022-08-26T00:11:46.321Z,84.16
2022-08-26T00:14:13.703Z,84.24
2022-08-26T00:16:40.959Z,84.30
2022-08-26T00:19:07.513Z,84.31
2022-08-26T00:21:34.350Z,85.70
2022-08-26T00:24:00.653Z,84.93
2022-08-26T00:26:28.447Z,84.91
2022-08-26T00:28:55.624Z,84.41
2022-08-26T00:31:22.005Z,84.49
2022-08-26T00:33:48.400Z,84.98
2022-08-26T00:36:20.433Z,84.73
2022-08-26T00:38:47.034Z,84.52
2022-08-26T00:41:13.410Z,84.14
2022-08-26T00:43:46.318Z,84.37
2022-08-26T00:46:14.361Z,83.97
2022-08-26T00:48:40.737Z,84.38
2022-08-26T00:51:08.337Z,84.08
2022-08-26T00:53:34.644Z,84.00
2022-08-26T00:56:00.992Z,83.66
2022-08-26T00:58:27.298Z,83.47
2022-08-26T01:00:54.288Z,84.04
2022-08-26T01:03:20.657Z,84.73
2022-08-26T01:05:46.959Z,84.43
2022-08-26T01:08:13.266Z,84.58
2022-08-26T01:10:39.572Z,86.11
2022-08-26T01:13:06.093Z,85.49
2022-08-26T01:15:33.042Z,85.07
2022-08-26T01:17:59.361Z,85.39
2022-08-26T01:20:26.135Z,85.94
2022-08-26T01:22:52.473Z,87.00
2022-08-26T01:25:19.451Z,86.25
2022-08-26T01:27:46.476Z,86.21
2022-08-26T01:30:15.540Z,85.60
2022-08-26T01:32:42.189Z,86.32
2022-08-26T01:35:08.677Z,85.64
2022-08-26T01:37:34.993Z,86.18
2022-08-26T01:40:01.421Z,86.17
2022-08-26T01:42:28.575Z,85.83
2022-08-26T01:44:54.975Z,85.49
2022-08-26T01:47:22.747Z,85.52
2022-08-26T01:49:49.060Z,85.51
2022-08-26T01:52:17.193Z,85.14
2022-08-26T01:54:43.483Z,85.30
2022-08-26T01:57:12.749Z,85.46
2022-08-26T01:59:39.152Z,85.17
2022-08-26T02:02:05.686Z,85.41
2022-08-26T02:04:32.024Z,85.22
2022-08-26T02:06:59.167Z,85.57
2022-08-26T02:09:25.479Z,85.90
2022-08-26T02:11:53.064Z,86.14
2022-08-26T02:14:20.174Z,85.88
2022-08-26T02:16:46.588Z,85.33
2022-08-26T02:19:16.844Z,85.61
2022-08-26T02:21:43.728Z,85.20
2022-08-26T02:24:10.025Z,85.83
2022-08-26T02:26:36.569Z,86.04
2022-08-26T02:29:02.975Z,85.90
2022-08-26T02:31:29.481Z,86.84
2022-08-26T02:33:55.897Z,86.34
2022-08-26T02:36:22.752Z,86.89
2022-08-26T02:38:49.468Z,86.89
2022-08-26T02:41:18.389Z,86.29
2022-08-26T02:43:44.920Z,86.15
2022-08-26T02:46:11.253Z,86.69
2022-08-26T02:48:37.662Z,87.63
2022-08-26T02:51:03.984Z,87.59
2022-08-26T02:53:31.833Z,87.74
2022-08-26T02:56:01.784Z,87.28
2022-08-26T02:58:29.433Z,87.23
2022-08-26T03:00:55.974Z,86.91
2022-08-26T03:03:23.670Z,87.08
2022-08-26T03:05:50.081Z,87.26
2022-08-26T03:08:16.385Z,87.94
2022-08-26T03:10:42.680Z,88.44
2022-08-26T03:13:09.110Z,87.87
2022-08-26T03:15:35.557Z,87.41
2022-08-26T03:18:03.633Z,86.95
2022-08-26T03:20:29.943Z,87.29
2022-08-26T03:22:56.847Z,87.06
2022-08-26T03:25:23.160Z,86.25
2022-08-26T03:27:50.032Z,86.78
2022-08-26T03:30:34.942Z,86.48
2022-08-26T03:33:01.230Z,86.62
2022-08-26T03:35:27.573Z,86.59
2022-08-26T03:37:53.889Z,86.77
2022-08-26T03:40:20.553Z,86.72
2022-08-26T03:42:46.931Z,86.92
2022-08-26T03:45:13.254Z,87.13
2022-08-26T03:47:41.323Z,86.59
2022-08-26T03:50:07.677Z,87.69
2022-08-26T03:52:34.000Z,88.34
2022-08-26T03:55:00.295Z,88.12
2022-08-26T03:57:27.013Z,88.42
2022-08-26T03:59:54.247Z,87.24
2022-08-26T04:02:20.705Z,87.90
2022-08-26T04:04:47.339Z,87.67
2022-08-26T04:07:13.908Z,87.06
2022-08-26T04:09:41.304Z,86.85
2022-08-26T04:12:07.602Z,86.71
2022-08-26T04:14:35.359Z,86.93
2022-08-26T04:17:04.899Z,86.65
2022-08-26T04:19:32.726Z,86.59
2022-08-26T04:21:59.037Z,86.96
2022-08-26T04:24:27.882Z,86.53
2022-08-26T04:26:55.185Z,86.77
2022-08-26T04:29:21.498Z,86.77
2022-08-26T04:31:48.238Z,86.33
2022-08-26T04:34:14.602Z,86.77
2022-08-26T04:36:41.223Z,86.88
2022-08-26T04:39:08.952Z,86.71
2022-08-26T04:41:35.544Z,87.00
2022-08-26T04:44:02.344Z,87.02
2022-08-26T04:46:29.277Z,86.60
2022-08-26T04:48:55.795Z,86.48
2022-08-26T04:51:30.684Z,86.44
2022-08-26T04:53:57.014Z,86.72
2022-08-26T04:56:23.433Z,88.53
2022-08-26T04:58:50.154Z,88.11
2022-08-26T05:01:16.706Z,87.91
2022-08-26T05:03:43.249Z,88.26
2022-08-26T05:06:09.627Z,88.83
2022-08-26T05:08:36.472Z,90.05
2022-08-26T05:11:02.800Z,89.48
2022-08-26T05:13:29.107Z,89.62
2022-08-26T05:16:00.006Z,89.46
2022-08-26T05:18:30.241Z,89.69
2022-08-26T05:20:56.560Z,90.10
2022-08-26T05:23:23.089Z,89.81
2022-08-26T05:25:49.827Z,88.76
2022-08-26T05:28:16.135Z,88.43
2022-08-26T05:30:42.489Z,87.82
2022-08-26T05:33:10.884Z,87.30
2022-08-26T05:35:38.207Z,89.46
2022-08-26T05:38:05.885Z,88.82
2022-08-26T05:40:34.617Z,87.83
2022-08-26T05:43:00.939Z,88.06
2022-08-26T05:45:28.438Z,88.24
2022-08-26T05:47:54.748Z,88.15
2022-08-26T05:50:21.929Z,87.82
2022-08-26T05:52:49.320Z,87.70
2022-08-26T05:55:15.648Z,87.38
2022-08-26T05:57:43.031Z,87.01
2022-08-26T06:00:09.994Z,86.70
2022-08-26T06:02:36.290Z,86.28
2022-08-26T06:05:02.618Z,86.15
2022-08-26T06:07:48.155Z,85.74
2022-08-26T06:10:31.481Z,85.08
2022-08-26T06:12:59.005Z,85.00
2022-08-26T06:15:25.927Z,84.89
2022-08-26T06:17:52.171Z,85.24
2022-08-26T06:20:18.718Z,85.27
2022-08-26T06:23:03.555Z,86.02
2022-08-26T06:25:39.713Z,84.67
2022-08-26T06:28:06.015Z,83.58
2022-08-26T06:30:32.316Z,83.92
2022-08-26T06:32:59.031Z,83.75
2022-08-26T06:35:25.343Z,86.19
2022-08-26T06:37:51.661Z,85.00
2022-08-26T06:40:18.002Z,83.99
2022-08-26T06:42:45.809Z,83.52
2022-08-26T06:45:12.318Z,83.03
2022-08-26T06:47:38.607Z,83.25
2022-08-26T06:50:04.915Z,84.08
2022-08-26T06:52:31.219Z,83.63
2022-08-26T06:54:57.520Z,82.50
2022-08-26T06:57:23.857Z,83.12
2022-08-26T06:59:51.136Z,83.58
2022-08-26T07:02:17.890Z,81.93
2022-08-26T07:04:44.380Z,81.39
2022-08-26T07:07:14.279Z,81.60
2022-08-26T07:09:40.572Z,79.79
2022-08-26T07:12:07.398Z,79.03
2022-08-26T07:14:33.688Z,82.48
2022-08-26T07:17:01.325Z,78.93
2022-08-26T07:19:31.109Z,78.60
2022-08-26T07:21:58.028Z,78.27
2022-08-26T07:24:24.344Z,77.52
2022-08-26T07:26:54.864Z,78.29
2022-08-26T07:29:24.625Z,77.52
2022-08-26T07:31:51.989Z,76.94
2022-08-26T07:34:18.665Z,78.72
2022-08-26T07:36:45.213Z,77.72
2022-08-26T07:39:12.407Z,77.32
2022-08-26T07:41:39.060Z,76.20
2022-08-26T07:44:05.367Z,77.76
2022-08-26T07:46:31.881Z,77.23
2022-08-26T07:48:58.192Z,76.41
2022-08-26T07:51:24.806Z,74.57
2022-08-26T07:53:52.422Z,74.08
2022-08-26T07:56:19.277Z,73.52
2022-08-26T07:58:48.975Z,72.26
2022-08-26T08:01:17.722Z,71.29
2022-08-26T08:03:44.073Z,72.73
2022-08-26T08:06:10.425Z,71.55
2022-08-26T08:08:36.811Z,71.14
2022-08-26T08:11:03.139Z,71.84
2022-08-26T08:13:29.563Z,71.17
2022-08-26T08:15:55.870Z,70.70
2022-08-26T08:18:23.255Z,70.11
2022-08-26T08:21:04.819Z,69.83
2022-08-26T08:23:36.485Z,69.76
2022-08-26T08:26:02.837Z,69.80
2022-08-26T08:28:29.250Z,68.90
2022-08-26T08:30:56.366Z,67.86
2022-08-26T08:33:22.716Z,67.24
2022-08-26T08:35:49.216Z,66.50
2022-08-26T08:38:16.461Z,66.55
2022-08-26T08:40:43.182Z,68.04
2022-08-26T08:43:09.765Z,66.11
2022-08-26T08:45:37.078Z,67.02
2022-08-26T08:48:03.589Z,68.54
2022-08-26T08:50:30.527Z,66.86
2022-08-26T08:52:57.219Z,65.79
2022-08-26T08:55:23.506Z,67.08
2022-08-26T08:57:49.863Z,66.12
2022-08-26T09:00:22.344Z,64.55
2022-08-26T09:02:56.969Z,64.65
2022-08-26T09:05:23.279Z,63.86
2022-08-26T09:07:49.586Z,63.40
2022-08-26T09:10:17.103Z,63.06
2022-08-26T09:12:43.954Z,62.43
2022-08-26T09:15:10.439Z,61.79
2022-08-26T09:17:36.969Z,63.04
2022-08-26T09:20:03.539Z,62.21
2022-08-26T09:22:29.905Z,63.74
2022-08-26T09:24:56.210Z,64.14
2022-08-26T09:27:22.518Z,63.66
2022-08-26T09:29:50.406Z,64.74
2022-08-26T09:32:19.360Z,66.03
2022-08-26T09:34:46.628Z,66.20
2022-08-26T09:37:13.465Z,65.75
2022-08-26T09:39:39.809Z,66.57
2022-08-26T09:42:07.506Z,66.93
2022-08-26T09:44:33.824Z,68.67
2022-08-26T09:47:00.928Z,67.43
2022-08-26T09:49:29.842Z,66.33
2022-08-26T09:51:59.054Z,66.24
2022-08-26T09:54:30.455Z,66.13
2022-08-26T09:56:59.210Z,65.81
2022-08-26T09:59:25.895Z,65.19
2022-08-26T10:01:56.684Z,65.23
2022-08-26T10:04:23.132Z,66.64
2022-08-26T10:06:49.513Z,67.67
2022-08-26T10:09:18.012Z,69.66
2022-08-26T10:11:44.992Z,69.96
2022-08-26T10:14:13.623Z,71.58
2022-08-26T10:16:39.995Z,72.37
2022-08-26T10:19:07.521Z,71.13
2022-08-26T10:21:33.998Z,71.91
2022-08-26T10:24:00.309Z,74.85
2022-08-26T10:26:27.968Z,74.71
2022-08-26T10:28:54.868Z,72.99
2022-08-26T10:31:21.222Z,72.63
2022-08-26T10:33:56.697Z,70.96
2022-08-26T10:37:05.032Z,68.86
2022-08-26T10:39:29.993Z,68.66
2022-08-26T10:41:56.546Z,70.04
2022-08-26T10:44:23.257Z,69.91
2022-08-26T10:46:49.507Z,67.77
2022-08-26T10:49:18.206Z,66.69
2022-08-26T10:51:45.631Z,66.66
2022-08-26T10:54:12.080Z,65.37
2022-08-26T10:56:38.375Z,65.33
2022-08-26T10:59:04.841Z,64.77
2022-08-26T11:01:42.846Z,63.91
2022-08-26T11:04:09.597Z,64.75
2022-08-26T11:06:36.948Z,65.34
2022-08-26T11:09:03.632Z,66.05
2022-08-26T11:11:30.160Z,66.69
2022-08-26T11:13:57.431Z,66.64
2022-08-26T11:16:24.073Z,67.35
2022-08-26T11:18:54.589Z,67.14
2022-08-26T11:21:21.634Z,65.57
2022-08-26T11:23:52.928Z,63.90
2022-08-26T11:26:30.080Z,63.68
2022-08-26T11:29:12.157Z,63.42
2022-08-26T11:31:39.816Z,63.58
2022-08-26T11:34:07.275Z,62.81
2022-08-26T11:36:37.385Z,63.09
2022-08-26T11:39:03.698Z,63.25
2022-08-26T11:41:31.382Z,59.66
2022-08-26T11:43:57.826Z,56.72
2022-08-26T11:46:24.127Z,55.81
2022-08-26T11:48:50.975Z,55.33
2022-08-26T11:51:17.413Z,54.17
2022-08-26T11:53:44.928Z,54.67
2022-08-26T11:56:13.614Z,52.66
2022-08-26T11:58:40.295Z,52.24
2022-08-26T12:01:09.685Z,51.89
2022-08-26T12:03:37.853Z,51.68
2022-08-26T12:06:04.207Z,51.39
2022-08-26T12:08:31.101Z,50.63
2022-08-26T12:10:57.410Z,51.40
2022-08-26T12:13:24.205Z,51.38
2022-08-26T12:15:52.597Z,50.87
2022-08-26T12:18:29.205Z,51.96
2022-08-26T12:20:56.331Z,51.32
2022-08-26T12:23:22.814Z,51.14
2022-08-26T12:25:50.234Z,50.98
2022-08-26T12:28:16.567Z,52.12
2022-08-26T12:30:45.963Z,52.98
2022-08-26T12:33:22.195Z,51.91
2022-08-26T12:35:52.684Z,49.15
2022-08-26T12:38:21.368Z,50.43
2022-08-26T12:40:47.666Z,50.81
2022-08-26T12:43:15.846Z,50.51
2022-08-26T12:45:43.081Z,50.59
2022-08-26T12:48:10.411Z,49.16
2022-08-26T12:50:36.881Z,48.29
2022-08-26T12:53:03.256Z,49.30
2022-08-26T12:55:29.696Z,49.57
2022-08-26T12:57:56.023Z,48.65
2022-08-26T13:00:22.330Z,47.99
2022-08-26T13:02:54.763Z,47.56
2022-08-26T13:05:21.100Z,48.14
2022-08-26T13:07:47.399Z,47.56
2022-08-26T13:10:13.708Z,48.37
2022-08-26T13:12:41.262Z,47.26
2022-08-26T13:15:07.477Z,48.18
2022-08-26T13:17:35.802Z,47.67
2022-08-26T13:20:04.193Z,46.70
2022-08-26T13:22:30.852Z,45.38
2022-08-26T13:24:57.230Z,45.86
2022-08-26T13:27:23.590Z,45.68
2022-08-26T13:29:50.090Z,47.47
2022-08-26T13:32:19.617Z,46.21
2022-08-26T13:34:51.061Z,46.65
2022-08-26T13:37:19.621Z,46.05
2022-08-26T13:39:45.915Z,45.97
2022-08-26T13:42:12.238Z,46.91
2022-08-26T13:44:39.033Z,46.80
2022-08-26T13:47:05.463Z,46.79
2022-08-26T13:49:31.760Z,46.57
2022-08-26T13:51:58.244Z,47.32
2022-08-26T13:54:24.472Z,47.00
2022-08-26T13:56:51.623Z,47.08
2022-08-26T13:59:17.933Z,47.43
2022-08-26T14:01:44.233Z,48.41
2022-08-26T14:04:10.553Z,49.56
2022-08-26T14:06:37.308Z,47.90
2022-08-26T14:09:03.629Z,48.94
2022-08-26T14:11:30.196Z,50.46
2022-08-26T14:14:03.579Z,48.79
2022-08-26T14:16:31.507Z,49.12
2022-08-26T14:19:01.119Z,49.86
2022-08-26T14:21:27.407Z,49.96
2022-08-26T14:23:55.916Z,50.84
2022-08-26T14:26:29.417Z,51.74
2022-08-26T14:28:56.223Z,51.10
2022-08-26T14:31:23.744Z,50.44
2022-08-26T14:33:50.179Z,50.91
2022-08-26T14:36:28.876Z,50.43
2022-08-26T14:38:55.576Z,50.38
2022-08-26T14:41:21.880Z,50.26
2022-08-26T14:43:48.433Z,49.78
2022-08-26T14:46:14.826Z,50.39
2022-08-26T14:48:41.197Z,49.31
2022-08-26T14:51:07.497Z,49.86
2022-08-26T14:53:52.441Z,49.29
2022-08-26T14:56:18.758Z,50.05
2022-08-26T14:58:45.535Z,50.12
2022-08-26T15:01:15.037Z,49.47
2022-08-26T15:03:42.413Z,49.96
2022-08-26T15:06:10.183Z,48.98
2022-08-26T15:08:37.255Z,48.41
2022-08-26T15:11:03.559Z,47.35
2022-08-26T15:13:29.858Z,48.56
2022-08-26T15:15:56.187Z,47.46
2022-08-26T15:18:23.376Z,47.74
2022-08-26T15:20:49.668Z,47.42
2022-08-26T15:23:15.980Z,47.97
2022-08-26T15:25:44.055Z,47.62
2022-08-26T15:28:10.407Z,49.13
2022-08-26T15:30:36.804Z,47.78
2022-08-26T15:33:03.231Z,49.14
2022-08-26T15:35:29.699Z,49.22
2022-08-26T15:37:59.360Z,48.91
2022-08-26T15:40:25.718Z,48.63
2022-08-26T15:43:01.254Z,49.54
2022-08-26T15:45:37.886Z,49.10
2022-08-26T15:48:04.365Z,48.08
2022-08-26T15:50:30.664Z,48.72
2022-08-26T15:52:56.963Z,47.45
2022-08-26T15:55:23.542Z,49.79
2022-08-26T15:57:49.903Z,50.76
2022-08-26T16:00:17.080Z,51.43
2022-08-26T16:02:43.380Z,52.37
2022-08-26T16:05:09.847Z,51.73
2022-08-26T16:07:36.228Z,52.31
2022-08-26T16:10:04.550Z,52.16
2022-08-26T16:12:30.844Z,53.35
2022-08-26T16:14:57.331Z,52.02
2022-08-26T16:17:23.628Z,52.80
2022-08-26T16:19:49.957Z,52.44
2022-08-26T16:22:16.254Z,52.50
2022-08-26T16:24:42.596Z,52.84
2022-08-26T16:27:08.901Z,51.85
2022-08-26T16:29:35.368Z,51.90
2022-08-26T16:32:08.480Z,53.55
2022-08-26T16:34:34.847Z,54.24
2022-08-26T16:37:01.490Z,54.92
2022-08-26T16:39:27.913Z,54.55
2022-08-26T16:41:54.269Z,54.30
2022-08-26T16:44:22.080Z,54.70
2022-08-26T16:46:48.595Z,54.11
2022-08-26T16:49:14.963Z,55.12
2022-08-26T16:51:41.256Z,58.31
2022-08-26T16:54:07.931Z,56.99
2022-08-26T16:56:34.583Z,57.23
2022-08-26T16:59:01.025Z,56.44
2022-08-26T17:01:27.376Z,60.08
2022-08-26T17:03:54.148Z,59.32
2022-08-26T17:06:20.384Z,60.51
2022-08-26T17:08:47.028Z,60.78
2022-08-26T17:11:13.543Z,61.43
2022-08-26T17:13:39.854Z,60.29
2022-08-26T17:16:06.214Z,60.71
2022-08-26T17:18:33.290Z,58.96
2022-08-26T17:20:59.581Z,61.38
2022-08-26T17:23:25.876Z,62.21
2022-08-26T17:25:52.176Z,64.68
2022-08-26T17:28:18.467Z,64.42
2022-08-26T17:30:44.805Z,63.69
2022-08-26T17:33:11.246Z,62.88
2022-08-26T17:35:37.555Z,62.71
2022-08-26T17:38:04.039Z,62.40
2022-08-26T17:40:31.527Z,59.79
2022-08-26T17:42:58.821Z,60.95
2022-08-26T17:45:25.577Z,62.35
2022-08-26T17:47:51.822Z,61.50
2022-08-26T17:50:18.228Z,61.51
2022-08-26T17:52:44.551Z,61.65
2022-08-26T17:55:10.850Z,62.69
2022-08-26T17:57:39.753Z,62.50
2022-08-26T18:00:07.451Z,62.86
2022-08-26T18:02:33.748Z,62.96
2022-08-26T18:05:00.062Z,63.79
2022-08-26T18:07:27.052Z,64.01
2022-08-26T18:09:53.353Z,64.19
2022-08-26T18:12:19.674Z,64.75
2022-08-26T18:14:45.976Z,64.71
2022-08-26T18:17:12.299Z,64.56
2022-08-26T18:22:07.839Z,63.96
2022-08-26T18:24:34.814Z,63.78
2022-08-26T18:27:01.114Z,63.44
2022-08-26T18:29:27.496Z,63.76
2022-08-26T18:31:53.805Z,64.58
2022-08-26T18:34:20.908Z,64.50
2022-08-26T18:36:47.213Z,64.45
2022-08-26T18:39:13.516Z,64.63
2022-08-26T18:41:39.845Z,64.46
2022-08-26T18:44:08.495Z,64.51
2022-08-26T18:46:35.834Z,64.55
2022-08-26T18:49:02.158Z,65.55
2022-08-26T18:51:29.604Z,65.08
2022-08-26T18:53:55.907Z,65.79
2022-08-26T18:56:22.212Z,66.71
2022-08-26T18:58:48.503Z,66.84
2022-08-26T19:01:14.954Z,66.37
2022-08-26T19:03:41.359Z,66.13
2022-08-26T19:06:08.422Z,65.96
2022-08-26T19:08:34.711Z,65.86
2022-08-26T19:11:01.013Z,65.12
2022-08-26T19:13:27.313Z,65.25
2022-08-26T19:15:53.607Z,65.19
2022-08-26T19:18:20.060Z,65.41
2022-08-26T19:20:46.824Z,66.05
2022-08-26T19:23:28.548Z,65.60
2022-08-26T19:25:57.956Z,65.96
2022-08-26T19:28:24.381Z,66.69
2022-08-26T19:30:53.096Z,66.73
2022-08-26T19:33:19.831Z,66.79
2022-08-26T19:35:46.180Z,65.04
2022-08-26T19:38:12.477Z,64.74
2022-08-26T19:40:38.779Z,64.12
2022-08-26T19:43:05.082Z,64.42
2022-08-26T19:45:31.580Z,64.25
2022-08-26T19:47:58.412Z,64.70
2022-08-26T19:50:24.770Z,66.15
2022-08-26T19:52:51.093Z,66.54
2022-08-26T19:55:17.413Z,66.95
2022-08-26T19:57:43.742Z,67.81
2022-08-26T20:00:13.061Z,67.27
2022-08-26T20:02:39.417Z,66.96
2022-08-26T20:05:05.867Z,67.21
2022-08-26T20:07:32.169Z,67.12
2022-08-26T20:09:59.372Z,67.31
2022-08-26T20:12:27.498Z,67.96
2022-08-26T20:14:53.909Z,68.06
2022-08-26T20:17:20.232Z,67.92
2022-08-26T20:20:05.083Z,67.80
2022-08-26T20:22:31.430Z,67.85
2022-08-26T20:24:58.043Z,67.49
2022-08-26T20:27:27.698Z,67.64
2022-08-26T20:30:04.526Z,67.04
2022-08-26T20:32:35.069Z,66.88
2022-08-26T20:35:01.936Z,67.12
2022-08-26T20:37:29.196Z,67.55
2022-08-26T20:39:55.526Z,67.66
2022-08-26T20:42:22.075Z,67.27
2022-08-26T20:44:54.404Z,67.02
2022-08-26T20:47:21.471Z,67.06
2022-08-26T20:49:47.776Z,66.73
2022-08-26T20:52:18.629Z,67.36
2022-08-26T20:54:44.924Z,67.98
2022-08-26T20:57:11.222Z,67.97
2022-08-26T20:59:37.519Z,69.21
2022-08-26T21:02:03.847Z,69.38
2022-08-26T21:04:30.254Z,70.10
2022-08-26T21:06:56.592Z,69.45
2022-08-26T21:09:23.159Z,70.20
2022-08-26T21:11:49.492Z,69.73
2022-08-26T21:14:17.232Z,69.50
2022-08-26T21:16:43.931Z,69.58
2022-08-26T21:19:10.611Z,69.34
2022-08-26T21:21:36.919Z,68.90
2022-08-26T21:24:03.217Z,69.63
2022-08-26T21:26:29.516Z,68.88
2022-08-26T21:28:55.863Z,69.09
2022-08-26T21:31:22.229Z,69.93
2022-08-26T21:33:48.608Z,71.65
2022-08-26T21:36:15.954Z,71.26
2022-08-26T21:38:42.259Z,71.80
2022-08-26T21:41:08.592Z,71.37
2022-08-26T21:43:35.812Z,74.30
2022-08-26T21:46:02.200Z,73.66
2022-08-26T21:48:33.186Z,73.26
2022-08-26T21:51:01.080Z,73.73
2022-08-26T21:53:27.415Z,74.40
2022-08-26T21:55:54.065Z,74.29
2022-08-26T21:58:20.377Z,74.01
2022-08-26T22:00:46.726Z,74.08
2022-08-26T22:03:13.363Z,74.20
2022-08-26T22:05:39.666Z,74.58
2022-08-26T22:08:05.954Z,73.78
2022-08-26T22:10:32.279Z,74.06
2022-08-26T22:12:58.579Z,74.35
2022-08-26T22:15:27.441Z,74.86
2022-08-26T22:17:53.740Z,76.83
2022-08-26T22:20:20.050Z,78.25
2022-08-26T22:22:46.344Z,76.59
2022-08-26T22:25:12.722Z,76.81
2022-08-26T22:27:40.489Z,76.87
2022-08-26T22:30:09.220Z,77.51
2022-08-26T22:32:39.539Z,76.81
2022-08-26T22:35:11.280Z,76.19
2022-08-26T22:37:52.059Z,79.78
2022-08-26T22:40:20.568Z,84.56
2022-08-26T22:42:58.114Z,85.14
2022-08-26T22:45:27.270Z,83.24
2022-08-26T22:47:53.596Z,81.69
2022-08-26T22:50:19.895Z,80.42
2022-08-26T22:52:46.207Z,83.12
2022-08-26T22:55:12.506Z,81.83
2022-08-26T22:57:38.994Z,80.93
2022-08-26T23:00:05.476Z,81.85
2022-08-26T23:02:31.789Z,80.78
2022-08-26T23:04:58.084Z,79.42
2022-08-26T23:07:24.426Z,78.55
2022-08-26T23:09:50.719Z,78.84
2022-08-26T23:12:17.016Z,78.46
2022-08-26T23:14:43.874Z,77.75
2022-08-26T23:17:10.397Z,77.81
2022-08-26T23:19:37.393Z,78.49
2022-08-26T23:22:03.704Z,79.30
2022-08-26T23:24:30.011Z,80.34
2022-08-26T23:26:56.313Z,80.32
2022-08-26T23:29:22.611Z,81.86
2022-08-26T23:31:48.939Z,81.44
2022-08-26T23:34:33.811Z,81.57
2022-08-26T23:37:00.920Z,80.85
2022-08-26T23:39:27.286Z,80.66
2022-08-26T23:41:53.593Z,80.83
2022-08-26T23:44:20.683Z,80.81
2022-08-26T23:46:46.979Z,80.57
2022-08-26T23:49:13.272Z,80.22
2022-08-26T23:51:58.039Z,79.76
2022-08-26T23:54:24.388Z,80.51
2022-08-26T23:56:50.683Z,80.57
2022-08-26T23:59:16.989Z,80.66
